This is the latest recevied weather packets stored in our database for station/object KC9ZAR-13. If no packets are shown the sender has not sent any weather packets the latest 10 day(s).
| Time | Temp. | Humidity | Pressure | Rain* | Wind** | Luminosity | Snow |
|---|---|---|---|---|---|---|---|
| 1777612504 | 12.22° C | 66% | 1012.4 hPa | 0 mm | - | 0 W/m² | - |
| 1777611604 | 11.11° C | 75% | 1012.6 hPa | 0 mm | - | 0 W/m² | - |
| 1777611005 | 10.56° C | 80% | 1012.6 hPa | 0 mm | - | 0 W/m² | - |
| 1777610405 | 10.56° C | 81% | 1012.6 hPa | 0 mm | - | 0 W/m² | - |
| 1777605904 | 10° C | 79% | 1013.1 hPa | 0 mm | - | 0 W/m² | - |
| 1777605305 | 10° C | 78% | 1013.2 hPa | 0 mm | - | 0 W/m² | - |
| 1777605005 | 10° C | 78% | 1013.3 hPa | 0 mm | - | 0 W/m² | - |
| 1777603804 | 10.56° C | 77% | 1013.3 hPa | 0 mm | - | 0 W/m² | - |
| 1777603204 | 10.56° C | 75% | 1013.4 hPa | 0 mm | - | 0 W/m² | - |
| 1777600204 | 11.67° C | 70% | 1013.1 hPa | 0 mm | - | 0 W/m² | - |
| 1777598705 | 13.33° C | 60% | 1013.3 hPa | 0 mm | - | 0 W/m² | - |
| 1777597804 | 14.44° C | 55% | 1013.3 hPa | 0 mm | - | 0 W/m² | - |
| 1777596605 | 15.56° C | 50% | 1013.1 hPa | 0 mm | - | 0 W/m² | - |
| 1777596304 | 15.56° C | 49% | 1013 hPa | 0 mm | - | 0 W/m² | - |
| 1777595405 | 16.11° C | 47% | 1012.9 hPa | 0 mm | - | 0 W/m² | - |
| 1777595104 | 16.11° C | 46% | 1012.8 hPa | 0 mm | - | 0 W/m² | - |
| 1777594204 | 16.67° C | 44% | 1012.9 hPa | 0 mm | - | 0 W/m² | - |
| 1777593005 | 17.22° C | 43% | 1013 hPa | 0 mm | - | 0 W/m² | - |
| 1777592405 | 17.22° C | 42% | 1013 hPa | 0 mm | - | 0 W/m² | - |
| 1777592105 | 17.78° C | 42% | 1013 hPa | 0 mm | - | 0 W/m² | - |
| 1777588805 | 18.33° C | 42% | 1013.4 hPa | 0 mm | - | 0 W/m² | - |
| 1777585506 | 18.33° C | 42% | 1013.5 hPa | 0 mm | - | 0 W/m² | - |
| 1777584306 | 17.78° C | 44% | 1013.6 hPa | 0 mm | - | 0 W/m² | - |
| 1777582206 | 17.78° C | 44% | 1014 hPa | 0 mm | - | 0 W/m² | - |
| 1777581905 | 17.78° C | 45% | 1014 hPa | 0 mm | - | 0 W/m² | - |
* Rain latest hour (hover to see other rain measurements)
** Current wind speed in m/s (hover to see current wind gust speed)